sensor_id;sensor_type;location;lat;lon;timestamp;pressure;altitude;pressure_sealevel;temperature
29423;BMP180;16399;51.686;8.684;2023-12-20T00:02:13;99596.00;;;7.30
29423;BMP180;16399;51.686;8.684;2023-12-20T00:05:16;99578.00;;;7.30
29423;BMP180;16399;51.686;8.684;2023-12-20T00:08:18;99578.00;;;7.30
29423;BMP180;16399;51.686;8.684;2023-12-20T00:11:21;99587.00;;;7.20
29423;BMP180;16399;51.686;8.684;2023-12-20T00:14:23;99600.00;;;7.20
29423;BMP180;16399;51.686;8.684;2023-12-20T00:17:25;99590.00;;;7.20
29423;BMP180;16399;51.686;8.684;2023-12-20T00:20:28;99584.00;;;7.20
29423;BMP180;16399;51.686;8.684;2023-12-20T00:23:31;99582.00;;;7.20
29423;BMP180;16399;51.686;8.684;2023-12-20T00:26:33;99578.00;;;7.20
29423;BMP180;16399;51.686;8.684;2023-12-20T00:29:35;99582.00;;;7.10
29423;BMP180;16399;51.686;8.684;2023-12-20T00:32:38;99588.00;;;7.10
29423;BMP180;16399;51.686;8.684;2023-12-20T00:35:40;99598.00;;;7.10
29423;BMP180;16399;51.686;8.684;2023-12-20T00:38:42;99598.00;;;7.00
29423;BMP180;16399;51.686;8.684;2023-12-20T00:41:45;99602.00;;;7.00
29423;BMP180;16399;51.686;8.684;2023-12-20T00:44:47;99604.00;;;6.90
29423;BMP180;16399;51.686;8.684;2023-12-20T00:47:49;99602.00;;;6.90
29423;BMP180;16399;51.686;8.684;2023-12-20T00:50:52;99605.00;;;6.90
29423;BMP180;16399;51.686;8.684;2023-12-20T00:53:54;99610.00;;;6.80
29423;BMP180;16399;51.686;8.684;2023-12-20T00:56:56;99598.00;;;6.80
29423;BMP180;16399;51.686;8.684;2023-12-20T00:59:58;99600.00;;;6.70
29423;BMP180;16399;51.686;8.684;2023-12-20T01:03:01;99615.00;;;6.70
29423;BMP180;16399;51.686;8.684;2023-12-20T01:06:03;99611.00;;;6.70
29423;BMP180;16399;51.686;8.684;2023-12-20T01:09:06;99626.00;;;6.60
29423;BMP180;16399;51.686;8.684;2023-12-20T01:12:08;99612.00;;;6.60
29423;BMP180;16399;51.686;8.684;2023-12-20T01:15:11;99617.00;;;6.50
29423;BMP180;16399;51.686;8.684;2023-12-20T01:18:14;99619.00;;;6.50
29423;BMP180;16399;51.686;8.684;2023-12-20T01:21:16;99617.00;;;6.50
29423;BMP180;16399;51.686;8.684;2023-12-20T01:24:18;99624.00;;;6.40
29423;BMP180;16399;51.686;8.684;2023-12-20T01:27:21;99628.00;;;6.40
29423;BMP180;16399;51.686;8.684;2023-12-20T01:30:23;99618.00;;;6.40
29423;BMP180;16399;51.686;8.684;2023-12-20T01:33:25;99620.00;;;6.40
29423;BMP180;16399;51.686;8.684;2023-12-20T01:36:27;99621.00;;;6.40
29423;BMP180;16399;51.686;8.684;2023-12-20T01:39:30;99623.00;;;6.40
29423;BMP180;16399;51.686;8.684;2023-12-20T01:42:32;99633.00;;;6.40
29423;BMP180;16399;51.686;8.684;2023-12-20T01:45:35;99624.00;;;6.40
29423;BMP180;16399;51.686;8.684;2023-12-20T01:48:37;99626.00;;;6.40
29423;BMP180;16399;51.686;8.684;2023-12-20T01:51:40;99638.00;;;6.40
29423;BMP180;16399;51.686;8.684;2023-12-20T01:54:43;99648.00;;;6.50
29423;BMP180;16399;51.686;8.684;2023-12-20T01:57:46;99643.00;;;6.50
29423;BMP180;16399;51.686;8.684;2023-12-20T02:00:49;99652.00;;;6.50
29423;BMP180;16399;51.686;8.684;2023-12-20T02:03:52;99637.00;;;6.50
29423;BMP180;16399;51.686;8.684;2023-12-20T02:06:56;99639.00;;;6.50
29423;BMP180;16399;51.686;8.684;2023-12-20T02:09:58;99636.00;;;6.50
29423;BMP180;16399;51.686;8.684;2023-12-20T02:13:00;99640.00;;;6.50
29423;BMP180;16399;51.686;8.684;2023-12-20T02:16:03;99633.00;;;6.50
29423;BMP180;16399;51.686;8.684;2023-12-20T02:19:09;99638.00;;;6.50
29423;BMP180;16399;51.686;8.684;2023-12-20T02:22:11;99646.00;;;6.50
29423;BMP180;16399;51.686;8.684;2023-12-20T02:25:14;99641.00;;;6.50
29423;BMP180;16399;51.686;8.684;2023-12-20T02:28:16;99628.00;;;6.50
29423;BMP180;16399;51.686;8.684;2023-12-20T02:31:23;99633.00;;;6.50
29423;BMP180;16399;51.686;8.684;2023-12-20T02:34:25;99625.00;;;6.50
29423;BMP180;16399;51.686;8.684;2023-12-20T02:37:27;99630.00;;;6.40
29423;BMP180;16399;51.686;8.684;2023-12-20T02:40:30;99619.00;;;6.40
29423;BMP180;16399;51.686;8.684;2023-12-20T02:43:32;99628.00;;;6.40
29423;BMP180;16399;51.686;8.684;2023-12-20T02:46:34;99620.00;;;6.40
29423;BMP180;16399;51.686;8.684;2023-12-20T02:49:37;99627.00;;;6.30
29423;BMP180;16399;51.686;8.684;2023-12-20T02:52:39;99626.00;;;6.20
29423;BMP180;16399;51.686;8.684;2023-12-20T02:55:41;99638.00;;;6.20
29423;BMP180;16399;51.686;8.684;2023-12-20T02:58:44;99634.00;;;6.10
29423;BMP180;16399;51.686;8.684;2023-12-20T03:01:46;99639.00;;;6.10
29423;BMP180;16399;51.686;8.684;2023-12-20T03:04:48;99634.00;;;6.10
29423;BMP180;16399;51.686;8.684;2023-12-20T03:07:51;99626.00;;;6.10
29423;BMP180;16399;51.686;8.684;2023-12-20T03:10:54;99633.00;;;6.10
29423;BMP180;16399;51.686;8.684;2023-12-20T03:13:57;99632.00;;;6.10
29423;BMP180;16399;51.686;8.684;2023-12-20T03:16:59;99626.00;;;6.10
29423;BMP180;16399;51.686;8.684;2023-12-20T03:20:02;99628.00;;;6.10
29423;BMP180;16399;51.686;8.684;2023-12-20T03:23:04;99626.00;;;6.10
29423;BMP180;16399;51.686;8.684;2023-12-20T03:26:09;99627.00;;;6.10
29423;BMP180;16399;51.686;8.684;2023-12-20T03:29:11;99622.00;;;6.10
29423;BMP180;16399;51.686;8.684;2023-12-20T03:32:14;99623.00;;;6.10
29423;BMP180;16399;51.686;8.684;2023-12-20T03:35:16;99618.00;;;6.10
29423;BMP180;16399;51.686;8.684;2023-12-20T03:38:18;99612.00;;;6.10
29423;BMP180;16399;51.686;8.684;2023-12-20T03:41:21;99614.00;;;6.00
29423;BMP180;16399;51.686;8.684;2023-12-20T03:44:23;99617.00;;;6.00
29423;BMP180;16399;51.686;8.684;2023-12-20T03:47:25;99617.00;;;6.00
29423;BMP180;16399;51.686;8.684;2023-12-20T03:50:28;99628.00;;;6.00
29423;BMP180;16399;51.686;8.684;2023-12-20T03:53:31;99620.00;;;6.00
29423;BMP180;16399;51.686;8.684;2023-12-20T03:56:33;99620.00;;;6.00
29423;BMP180;16399;51.686;8.684;2023-12-20T03:59:36;99612.00;;;6.00
29423;BMP180;16399;51.686;8.684;2023-12-20T04:02:43;99609.00;;;6.00
29423;BMP180;16399;51.686;8.684;2023-12-20T04:05:43;99605.00;;;6.00
29423;BMP180;16399;51.686;8.684;2023-12-20T04:08:45;99601.00;;;6.10
29423;BMP180;16399;51.686;8.684;2023-12-20T04:11:47;99617.00;;;6.00
29423;BMP180;16399;51.686;8.684;2023-12-20T04:14:49;99612.00;;;6.00
29423;BMP180;16399;51.686;8.684;2023-12-20T04:17:52;99610.00;;;6.00
29423;BMP180;16399;51.686;8.684;2023-12-20T04:20:54;99618.00;;;6.00
29423;BMP180;16399;51.686;8.684;2023-12-20T04:23:56;99630.00;;;6.00
29423;BMP180;16399;51.686;8.684;2023-12-20T04:26:59;99600.00;;;6.00
29423;BMP180;16399;51.686;8.684;2023-12-20T04:30:01;99599.00;;;5.90
29423;BMP180;16399;51.686;8.684;2023-12-20T04:33:04;99597.00;;;5.80
29423;BMP180;16399;51.686;8.684;2023-12-20T04:36:06;99608.00;;;5.80
29423;BMP180;16399;51.686;8.684;2023-12-20T04:39:15;99605.00;;;5.70
29423;BMP180;16399;51.686;8.684;2023-12-20T04:42:14;99604.00;;;5.70
29423;BMP180;16399;51.686;8.684;2023-12-20T04:45:16;99595.00;;;5.70
29423;BMP180;16399;51.686;8.684;2023-12-20T04:48:20;99604.00;;;5.70
29423;BMP180;16399;51.686;8.684;2023-12-20T04:51:23;99599.00;;;5.80
29423;BMP180;16399;51.686;8.684;2023-12-20T04:54:25;99608.00;;;5.70
29423;BMP180;16399;51.686;8.684;2023-12-20T04:57:28;99594.00;;;5.70
29423;BMP180;16399;51.686;8.684;2023-12-20T05:00:30;99583.00;;;5.70
29423;BMP180;16399;51.686;8.684;2023-12-20T05:03:32;99593.00;;;5.70
29423;BMP180;16399;51.686;8.684;2023-12-20T05:06:34;99588.00;;;5.70
29423;BMP180;16399;51.686;8.684;2023-12-20T05:09:37;99580.00;;;5.70
29423;BMP180;16399;51.686;8.684;2023-12-20T05:12:39;99593.00;;;5.70
29423;BMP180;16399;51.686;8.684;2023-12-20T05:15:42;99586.00;;;5.70
29423;BMP180;16399;51.686;8.684;2023-12-20T05:18:45;99596.00;;;5.70
29423;BMP180;16399;51.686;8.684;2023-12-20T05:21:47;99608.00;;;5.80
29423;BMP180;16399;51.686;8.684;2023-12-20T05:24:50;99616.00;;;5.80
29423;BMP180;16399;51.686;8.684;2023-12-20T05:27:52;99611.00;;;5.80
29423;BMP180;16399;51.686;8.684;2023-12-20T05:30:55;99612.00;;;5.80
29423;BMP180;16399;51.686;8.684;2023-12-20T05:33:57;99614.00;;;5.80
29423;BMP180;16399;51.686;8.684;2023-12-20T05:36:59;99603.00;;;5.80
29423;BMP180;16399;51.686;8.684;2023-12-20T05:40:03;99602.00;;;5.80
29423;BMP180;16399;51.686;8.684;2023-12-20T05:43:05;99598.00;;;5.90
29423;BMP180;16399;51.686;8.684;2023-12-20T05:46:12;99595.00;;;5.80
29423;BMP180;16399;51.686;8.684;2023-12-20T05:49:14;99598.00;;;5.80
29423;BMP180;16399;51.686;8.684;2023-12-20T05:52:17;99605.00;;;5.80
29423;BMP180;16399;51.686;8.684;2023-12-20T05:55:19;99592.00;;;5.80
29423;BMP180;16399;51.686;8.684;2023-12-20T05:58:21;99598.00;;;5.80
29423;BMP180;16399;51.686;8.684;2023-12-20T06:01:23;99600.00;;;5.90
29423;BMP180;16399;51.686;8.684;2023-12-20T06:04:26;99599.00;;;5.90
29423;BMP180;16399;51.686;8.684;2023-12-20T06:07:28;99599.00;;;5.90
29423;BMP180;16399;51.686;8.684;2023-12-20T06:10:30;99604.00;;;5.90
29423;BMP180;16399;51.686;8.684;2023-12-20T06:13:33;99613.00;;;5.90
29423;BMP180;16399;51.686;8.684;2023-12-20T06:16:35;99602.00;;;5.80
29423;BMP180;16399;51.686;8.684;2023-12-20T06:19:37;99608.00;;;5.90
29423;BMP180;16399;51.686;8.684;2023-12-20T06:22:40;99609.00;;;5.80
29423;BMP180;16399;51.686;8.684;2023-12-20T06:25:42;99608.00;;;5.90
29423;BMP180;16399;51.686;8.684;2023-12-20T06:28:44;99606.00;;;5.90
29423;BMP180;16399;51.686;8.684;2023-12-20T06:31:47;99608.00;;;5.90
29423;BMP180;16399;51.686;8.684;2023-12-20T06:34:49;99605.00;;;5.90
29423;BMP180;16399;51.686;8.684;2023-12-20T06:37:52;99609.00;;;5.90
29423;BMP180;16399;51.686;8.684;2023-12-20T06:40:54;99605.00;;;5.90
29423;BMP180;16399;51.686;8.684;2023-12-20T06:43:58;99597.00;;;5.90
29423;BMP180;16399;51.686;8.684;2023-12-20T06:47:00;99607.00;;;5.90
29423;BMP180;16399;51.686;8.684;2023-12-20T06:50:02;99614.00;;;5.90
29423;BMP180;16399;51.686;8.684;2023-12-20T06:53:05;99607.00;;;5.90
29423;BMP180;16399;51.686;8.684;2023-12-20T06:56:09;99606.00;;;5.90
29423;BMP180;16399;51.686;8.684;2023-12-20T06:59:12;99613.00;;;5.90
29423;BMP180;16399;51.686;8.684;2023-12-20T07:02:15;99591.00;;;5.90
29423;BMP180;16399;51.686;8.684;2023-12-20T07:05:17;99597.00;;;5.90
29423;BMP180;16399;51.686;8.684;2023-12-20T07:08:21;99609.00;;;5.90
29423;BMP180;16399;51.686;8.684;2023-12-20T07:11:23;99615.00;;;5.90
29423;BMP180;16399;51.686;8.684;2023-12-20T07:14:25;99613.00;;;5.90
29423;BMP180;16399;51.686;8.684;2023-12-20T07:17:28;99618.00;;;6.00
29423;BMP180;16399;51.686;8.684;2023-12-20T07:20:31;99613.00;;;6.00
29423;BMP180;16399;51.686;8.684;2023-12-20T07:23:33;99610.00;;;6.00
29423;BMP180;16399;51.686;8.684;2023-12-20T07:26:36;99610.00;;;6.00
29423;BMP180;16399;51.686;8.684;2023-12-20T07:29:39;99622.00;;;5.90
29423;BMP180;16399;51.686;8.684;2023-12-20T07:32:42;99618.00;;;6.00
29423;BMP180;16399;51.686;8.684;2023-12-20T07:35:44;99625.00;;;6.00
29423;BMP180;16399;51.686;8.684;2023-12-20T07:38:46;99622.00;;;6.00
29423;BMP180;16399;51.686;8.684;2023-12-20T07:41:49;99623.00;;;6.00
29423;BMP180;16399;51.686;8.684;2023-12-20T07:44:51;99613.00;;;6.00
29423;BMP180;16399;51.686;8.684;2023-12-20T07:47:54;99608.00;;;6.00
29423;BMP180;16399;51.686;8.684;2023-12-20T07:50:56;99613.00;;;6.00
29423;BMP180;16399;51.686;8.684;2023-12-20T07:53:59;99632.00;;;6.00
29423;BMP180;16399;51.686;8.684;2023-12-20T07:57:01;99632.00;;;6.00
29423;BMP180;16399;51.686;8.684;2023-12-20T08:00:04;99618.00;;;6.00
29423;BMP180;16399;51.686;8.684;2023-12-20T08:03:06;99632.00;;;6.00
29423;BMP180;16399;51.686;8.684;2023-12-20T08:06:08;99621.00;;;6.00
29423;BMP180;16399;51.686;8.684;2023-12-20T08:09:11;99619.00;;;6.10
29423;BMP180;16399;51.686;8.684;2023-12-20T08:12:13;99619.00;;;6.00
29423;BMP180;16399;51.686;8.684;2023-12-20T08:15:16;99614.00;;;6.10
29423;BMP180;16399;51.686;8.684;2023-12-20T08:18:19;99622.00;;;6.10
29423;BMP180;16399;51.686;8.684;2023-12-20T08:21:21;99618.00;;;6.10
29423;BMP180;16399;51.686;8.684;2023-12-20T08:24:23;99625.00;;;6.10
29423;BMP180;16399;51.686;8.684;2023-12-20T08:27:26;99615.00;;;6.10
29423;BMP180;16399;51.686;8.684;2023-12-20T08:30:28;99600.00;;;6.10
29423;BMP180;16399;51.686;8.684;2023-12-20T08:33:32;99606.00;;;6.10
29423;BMP180;16399;51.686;8.684;2023-12-20T08:36:34;99612.00;;;6.10
29423;BMP180;16399;51.686;8.684;2023-12-20T08:39:36;99608.00;;;6.10
29423;BMP180;16399;51.686;8.684;2023-12-20T08:42:39;99599.00;;;6.10
29423;BMP180;16399;51.686;8.684;2023-12-20T08:45:41;99595.00;;;6.10
29423;BMP180;16399;51.686;8.684;2023-12-20T08:48:43;99596.00;;;6.10
29423;BMP180;16399;51.686;8.684;2023-12-20T08:51:46;99591.00;;;6.10
29423;BMP180;16399;51.686;8.684;2023-12-20T08:54:48;99585.00;;;6.10
29423;BMP180;16399;51.686;8.684;2023-12-20T08:57:52;99569.00;;;6.10
29423;BMP180;16399;51.686;8.684;2023-12-20T09:00:54;99574.00;;;6.10
29423;BMP180;16399;51.686;8.684;2023-12-20T09:03:56;99571.00;;;6.20
29423;BMP180;16399;51.686;8.684;2023-12-20T09:07:00;99570.00;;;6.20
29423;BMP180;16399;51.686;8.684;2023-12-20T09:10:02;99566.00;;;6.20
29423;BMP180;16399;51.686;8.684;2023-12-20T09:13:05;99569.00;;;6.30
29423;BMP180;16399;51.686;8.684;2023-12-20T09:16:08;99570.00;;;6.30
29423;BMP180;16399;51.686;8.684;2023-12-20T09:19:10;99564.00;;;6.30
29423;BMP180;16399;51.686;8.684;2023-12-20T09:22:12;99564.00;;;6.30
29423;BMP180;16399;51.686;8.684;2023-12-20T09:25:15;99554.00;;;6.30
29423;BMP180;16399;51.686;8.684;2023-12-20T09:28:18;99551.00;;;6.30
29423;BMP180;16399;51.686;8.684;2023-12-20T09:31:21;99550.00;;;6.40
29423;BMP180;16399;51.686;8.684;2023-12-20T09:34:24;99549.00;;;6.40
29423;BMP180;16399;51.686;8.684;2023-12-20T09:37:27;99553.00;;;6.40
29423;BMP180;16399;51.686;8.684;2023-12-20T09:40:32;99551.00;;;6.40
29423;BMP180;16399;51.686;8.684;2023-12-20T09:43:37;99547.00;;;6.40
29423;BMP180;16399;51.686;8.684;2023-12-20T09:46:48;99544.00;;;6.40
29423;BMP180;16399;51.686;8.684;2023-12-20T09:49:45;99538.00;;;6.40
29423;BMP180;16399;51.686;8.684;2023-12-20T09:52:50;99514.00;;;6.40
29423;BMP180;16399;51.686;8.684;2023-12-20T09:55:53;99509.00;;;6.30
29423;BMP180;16399;51.686;8.684;2023-12-20T09:58:55;99515.00;;;6.30
29423;BMP180;16399;51.686;8.684;2023-12-20T10:01:58;99518.00;;;6.40
29423;BMP180;16399;51.686;8.684;2023-12-20T10:05:02;99519.00;;;6.50
29423;BMP180;16399;51.686;8.684;2023-12-20T10:08:06;99504.00;;;6.50
29423;BMP180;16399;51.686;8.684;2023-12-20T10:11:09;99518.00;;;6.50
29423;BMP180;16399;51.686;8.684;2023-12-20T10:14:11;99512.00;;;6.50
29423;BMP180;16399;51.686;8.684;2023-12-20T10:17:14;99520.00;;;6.50
29423;BMP180;16399;51.686;8.684;2023-12-20T10:20:16;99511.00;;;6.50
29423;BMP180;16399;51.686;8.684;2023-12-20T10:23:19;99499.00;;;6.50
29423;BMP180;16399;51.686;8.684;2023-12-20T10:26:23;99496.00;;;6.60
29423;BMP180;16399;51.686;8.684;2023-12-20T10:29:25;99496.00;;;6.70
29423;BMP180;16399;51.686;8.684;2023-12-20T10:32:28;99500.00;;;6.70
29423;BMP180;16399;51.686;8.684;2023-12-20T10:35:30;99493.00;;;6.70
29423;BMP180;16399;51.686;8.684;2023-12-20T10:38:34;99484.00;;;6.60
29423;BMP180;16399;51.686;8.684;2023-12-20T10:41:37;99481.00;;;6.70
29423;BMP180;16399;51.686;8.684;2023-12-20T10:44:42;99478.00;;;6.70
29423;BMP180;16399;51.686;8.684;2023-12-20T10:47:49;99479.00;;;6.70
29423;BMP180;16399;51.686;8.684;2023-12-20T10:50:52;99473.00;;;6.70
29423;BMP180;16399;51.686;8.684;2023-12-20T10:53:56;99477.00;;;6.80
29423;BMP180;16399;51.686;8.684;2023-12-20T11:00:08;99476.00;;;6.80
29423;BMP180;16399;51.686;8.684;2023-12-20T11:03:12;99468.00;;;6.90
29423;BMP180;16399;51.686;8.684;2023-12-20T11:10:01;99463.00;;;7.00
29423;BMP180;16399;51.686;8.684;2023-12-20T11:13:20;99460.00;;;7.00
29423;BMP180;16399;51.686;8.684;2023-12-20T11:16:18;99464.00;;;7.00
29423;BMP180;16399;51.686;8.684;2023-12-20T11:19:20;99463.00;;;7.00
29423;BMP180;16399;51.686;8.684;2023-12-20T11:22:26;99472.00;;;7.00
29423;BMP180;16399;51.686;8.684;2023-12-20T11:25:29;99462.00;;;6.90
29423;BMP180;16399;51.686;8.684;2023-12-20T11:28:31;99462.00;;;7.00
29423;BMP180;16399;51.686;8.684;2023-12-20T11:31:39;99450.00;;;7.00
29423;BMP180;16399;51.686;8.684;2023-12-20T11:34:39;99448.00;;;7.00
29423;BMP180;16399;51.686;8.684;2023-12-20T11:37:43;99457.00;;;7.00
29423;BMP180;16399;51.686;8.684;2023-12-20T11:40:49;99461.00;;;7.00
29423;BMP180;16399;51.686;8.684;2023-12-20T11:43:54;99448.00;;;7.00
29423;BMP180;16399;51.686;8.684;2023-12-20T11:46:56;99453.00;;;7.00
29423;BMP180;16399;51.686;8.684;2023-12-20T11:49:58;99456.00;;;7.00
29423;BMP180;16399;51.686;8.684;2023-12-20T11:53:03;99446.00;;;7.00
29423;BMP180;16399;51.686;8.684;2023-12-20T11:56:08;99451.00;;;7.00
29423;BMP180;16399;51.686;8.684;2023-12-20T11:59:11;99460.00;;;6.90
29423;BMP180;16399;51.686;8.684;2023-12-20T12:02:13;99434.00;;;6.90
29423;BMP180;16399;51.686;8.684;2023-12-20T12:05:16;99448.00;;;6.90
29423;BMP180;16399;51.686;8.684;2023-12-20T12:08:18;99436.00;;;6.90
29423;BMP180;16399;51.686;8.684;2023-12-20T12:11:21;99433.00;;;6.80
29423;BMP180;16399;51.686;8.684;2023-12-20T12:14:24;99414.00;;;6.90
29423;BMP180;16399;51.686;8.684;2023-12-20T12:17:27;99422.00;;;6.80
29423;BMP180;16399;51.686;8.684;2023-12-20T12:20:29;99411.00;;;6.90
29423;BMP180;16399;51.686;8.684;2023-12-20T12:23:31;99409.00;;;6.90
29423;BMP180;16399;51.686;8.684;2023-12-20T12:26:33;99399.00;;;7.00
29423;BMP180;16399;51.686;8.684;2023-12-20T12:29:37;99404.00;;;7.00
29423;BMP180;16399;51.686;8.684;2023-12-20T12:32:59;99417.00;;;7.10
29423;BMP180;16399;51.686;8.684;2023-12-20T12:36:02;99406.00;;;7.20
29423;BMP180;16399;51.686;8.684;2023-12-20T12:39:06;99395.00;;;7.30
29423;BMP180;16399;51.686;8.684;2023-12-20T12:42:08;99394.00;;;7.30
29423;BMP180;16399;51.686;8.684;2023-12-20T12:45:11;99395.00;;;7.30
29423;BMP180;16399;51.686;8.684;2023-12-20T12:48:13;99382.00;;;7.30
29423;BMP180;16399;51.686;8.684;2023-12-20T12:51:16;99377.00;;;7.30
29423;BMP180;16399;51.686;8.684;2023-12-20T12:54:18;99378.00;;;7.30
29423;BMP180;16399;51.686;8.684;2023-12-20T12:57:21;99372.00;;;7.50
29423;BMP180;16399;51.686;8.684;2023-12-20T13:00:23;99382.00;;;7.50
29423;BMP180;16399;51.686;8.684;2023-12-20T13:03:26;99381.00;;;7.60
29423;BMP180;16399;51.686;8.684;2023-12-20T13:06:28;99381.00;;;7.60
29423;BMP180;16399;51.686;8.684;2023-12-20T13:09:30;99367.00;;;7.70
29423;BMP180;16399;51.686;8.684;2023-12-20T13:12:33;99363.00;;;7.80
29423;BMP180;16399;51.686;8.684;2023-12-20T13:15:35;99374.00;;;7.70
29423;BMP180;16399;51.686;8.684;2023-12-20T13:18:37;99376.00;;;7.70
29423;BMP180;16399;51.686;8.684;2023-12-20T13:21:41;99380.00;;;7.70
29423;BMP180;16399;51.686;8.684;2023-12-20T13:24:43;99379.00;;;7.60
29423;BMP180;16399;51.686;8.684;2023-12-20T13:27:46;99381.00;;;7.50
29423;BMP180;16399;51.686;8.684;2023-12-20T13:30:48;99376.00;;;7.40
29423;BMP180;16399;51.686;8.684;2023-12-20T13:33:50;99358.00;;;7.40
29423;BMP180;16399;51.686;8.684;2023-12-20T13:36:53;99368.00;;;7.30
29423;BMP180;16399;51.686;8.684;2023-12-20T13:39:55;99369.00;;;7.30
29423;BMP180;16399;51.686;8.684;2023-12-20T13:42:58;99348.00;;;7.30
29423;BMP180;16399;51.686;8.684;2023-12-20T13:46:00;99368.00;;;7.20
29423;BMP180;16399;51.686;8.684;2023-12-20T13:49:03;99350.00;;;7.20
29423;BMP180;16399;51.686;8.684;2023-12-20T13:52:06;99356.00;;;7.20
29423;BMP180;16399;51.686;8.684;2023-12-20T13:55:09;99355.00;;;7.20
29423;BMP180;16399;51.686;8.684;2023-12-20T13:58:12;99354.00;;;7.20
29423;BMP180;16399;51.686;8.684;2023-12-20T14:01:14;99365.00;;;7.20
29423;BMP180;16399;51.686;8.684;2023-12-20T14:04:16;99373.00;;;7.20
29423;BMP180;16399;51.686;8.684;2023-12-20T14:07:19;99358.00;;;7.20
29423;BMP180;16399;51.686;8.684;2023-12-20T14:10:22;99359.00;;;7.20
29423;BMP180;16399;51.686;8.684;2023-12-20T14:13:24;99365.00;;;7.20
29423;BMP180;16399;51.686;8.684;2023-12-20T14:16:26;99355.00;;;7.20
29423;BMP180;16399;51.686;8.684;2023-12-20T14:19:29;99348.00;;;7.20
29423;BMP180;16399;51.686;8.684;2023-12-20T14:22:31;99351.00;;;7.20
29423;BMP180;16399;51.686;8.684;2023-12-20T14:25:33;99350.00;;;7.20
29423;BMP180;16399;51.686;8.684;2023-12-20T14:28:37;99356.00;;;7.20
29423;BMP180;16399;51.686;8.684;2023-12-20T14:31:40;99348.00;;;7.20
29423;BMP180;16399;51.686;8.684;2023-12-20T14:34:43;99352.00;;;7.20
29423;BMP180;16399;51.686;8.684;2023-12-20T14:37:45;99338.00;;;7.20
29423;BMP180;16399;51.686;8.684;2023-12-20T14:40:47;99331.00;;;7.20
29423;BMP180;16399;51.686;8.684;2023-12-20T14:43:51;99340.00;;;7.20
29423;BMP180;16399;51.686;8.684;2023-12-20T14:46:54;99341.00;;;7.20
29423;BMP180;16399;51.686;8.684;2023-12-20T14:49:56;99341.00;;;7.20
29423;BMP180;16399;51.686;8.684;2023-12-20T14:52:59;99350.00;;;7.20
29423;BMP180;16399;51.686;8.684;2023-12-20T14:56:03;99343.00;;;7.20
29423;BMP180;16399;51.686;8.684;2023-12-20T14:59:06;99330.00;;;7.20
29423;BMP180;16399;51.686;8.684;2023-12-20T15:02:09;99336.00;;;7.20
29423;BMP180;16399;51.686;8.684;2023-12-20T15:05:11;99350.00;;;7.20
29423;BMP180;16399;51.686;8.684;2023-12-20T15:08:15;99337.00;;;7.20
29423;BMP180;16399;51.686;8.684;2023-12-20T15:11:18;99347.00;;;7.20
29423;BMP180;16399;51.686;8.684;2023-12-20T15:14:20;99348.00;;;7.20
29423;BMP180;16399;51.686;8.684;2023-12-20T15:17:22;99339.00;;;7.20
29423;BMP180;16399;51.686;8.684;2023-12-20T15:20:26;99350.00;;;7.20
29423;BMP180;16399;51.686;8.684;2023-12-20T15:23:28;99348.00;;;7.20
29423;BMP180;16399;51.686;8.684;2023-12-20T15:26:33;99350.00;;;7.20
29423;BMP180;16399;51.686;8.684;2023-12-20T15:29:36;99355.00;;;7.10
29423;BMP180;16399;51.686;8.684;2023-12-20T15:32:38;99341.00;;;7.20
29423;BMP180;16399;51.686;8.684;2023-12-20T15:35:41;99338.00;;;7.10
29423;BMP180;16399;51.686;8.684;2023-12-20T15:38:43;99332.00;;;7.10
29423;BMP180;16399;51.686;8.684;2023-12-20T15:41:46;99332.00;;;7.10
29423;BMP180;16399;51.686;8.684;2023-12-20T15:44:48;99333.00;;;7.10
29423;BMP180;16399;51.686;8.684;2023-12-20T15:47:51;99338.00;;;7.10
29423;BMP180;16399;51.686;8.684;2023-12-20T15:50:53;99337.00;;;7.10
29423;BMP180;16399;51.686;8.684;2023-12-20T15:53:55;99328.00;;;7.10
29423;BMP180;16399;51.686;8.684;2023-12-20T15:56:58;99338.00;;;7.10
29423;BMP180;16399;51.686;8.684;2023-12-20T16:00:00;99325.00;;;7.10
29423;BMP180;16399;51.686;8.684;2023-12-20T16:03:03;99345.00;;;7.10
29423;BMP180;16399;51.686;8.684;2023-12-20T16:06:06;99350.00;;;7.00
29423;BMP180;16399;51.686;8.684;2023-12-20T16:09:08;99350.00;;;7.10
29423;BMP180;16399;51.686;8.684;2023-12-20T16:12:11;99342.00;;;7.00
29423;BMP180;16399;51.686;8.684;2023-12-20T16:15:14;99333.00;;;7.00
29423;BMP180;16399;51.686;8.684;2023-12-20T16:18:16;99333.00;;;7.00
29423;BMP180;16399;51.686;8.684;2023-12-20T16:21:18;99341.00;;;7.00
29423;BMP180;16399;51.686;8.684;2023-12-20T16:24:20;99319.00;;;7.00
29423;BMP180;16399;51.686;8.684;2023-12-20T16:27:23;99333.00;;;7.00
29423;BMP180;16399;51.686;8.684;2023-12-20T16:30:25;99318.00;;;7.00
29423;BMP180;16399;51.686;8.684;2023-12-20T16:33:27;99306.00;;;7.00
29423;BMP180;16399;51.686;8.684;2023-12-20T16:36:49;99314.00;;;7.00
29423;BMP180;16399;51.686;8.684;2023-12-20T16:39:52;99326.00;;;7.00
29423;BMP180;16399;51.686;8.684;2023-12-20T16:42:54;99316.00;;;7.00
29423;BMP180;16399;51.686;8.684;2023-12-20T16:45:58;99326.00;;;7.00
29423;BMP180;16399;51.686;8.684;2023-12-20T16:49:00;99324.00;;;7.00
29423;BMP180;16399;51.686;8.684;2023-12-20T16:52:04;99328.00;;;7.10
29423;BMP180;16399;51.686;8.684;2023-12-20T16:55:08;99315.00;;;7.10
29423;BMP180;16399;51.686;8.684;2023-12-20T16:58:11;99323.00;;;7.10
29423;BMP180;16399;51.686;8.684;2023-12-20T17:01:14;99320.00;;;7.10
29423;BMP180;16399;51.686;8.684;2023-12-20T17:04:17;99320.00;;;7.10
29423;BMP180;16399;51.686;8.684;2023-12-20T17:07:20;99314.00;;;7.10
29423;BMP180;16399;51.686;8.684;2023-12-20T17:10:22;99312.00;;;7.10
29423;BMP180;16399;51.686;8.684;2023-12-20T17:13:25;99336.00;;;7.10
29423;BMP180;16399;51.686;8.684;2023-12-20T17:16:28;99329.00;;;7.20
29423;BMP180;16399;51.686;8.684;2023-12-20T17:19:31;99332.00;;;7.20
29423;BMP180;16399;51.686;8.684;2023-12-20T17:22:33;99332.00;;;7.20
29423;BMP180;16399;51.686;8.684;2023-12-20T17:25:35;99338.00;;;7.20
29423;BMP180;16399;51.686;8.684;2023-12-20T17:28:39;99324.00;;;7.20
29423;BMP180;16399;51.686;8.684;2023-12-20T17:31:42;99326.00;;;7.20
29423;BMP180;16399;51.686;8.684;2023-12-20T17:34:45;99322.00;;;7.20
29423;BMP180;16399;51.686;8.684;2023-12-20T17:37:47;99310.00;;;7.20
29423;BMP180;16399;51.686;8.684;2023-12-20T17:40:49;99304.00;;;7.20
29423;BMP180;16399;51.686;8.684;2023-12-20T17:43:51;99315.00;;;7.20
29423;BMP180;16399;51.686;8.684;2023-12-20T17:46:54;99306.00;;;7.20
29423;BMP180;16399;51.686;8.684;2023-12-20T17:49:56;99305.00;;;7.20
29423;BMP180;16399;51.686;8.684;2023-12-20T17:52:59;99291.00;;;7.20
29423;BMP180;16399;51.686;8.684;2023-12-20T17:56:01;99298.00;;;7.30